logo
Search for airport 
image banner adimage banner adimage banner ad
image banner ad

EDLI - Bielefeld

Located in Bielefeld, Germany

ICAO - EDLI, IATA - BFE

Data provided by Airmate  

General information

Coordinates: N51°57'53" E8°32'41"
Elevation is 454 feet MSL.
Magnetic variation is 2.0000° East
View others Airports in North Rhine-Westphalia

Operational data

Special qualification required
Current time UTC:
Current local time:
Weather at : EDLP - Paderborn/Lippstadt ( 39 km )
METAR: EDLP 130350Z 24006KT 9999 FEW040 11/10 Q1011
TAF: TAF EDLP 122300Z 1300/1324 24008KT 9999 BKN012 PROB30 TEMPO 1300/1303 BKN008 BECMG 1302/1304 SCT020 BKN030 BECMG 1305/1308 23013KT PROB30 TEMPO 1308/1315 24015G25KT BECMG 1315/1318 25008KT BECMG 1319/1322 19005KT
View NOTAMs / SUP AIP / TFR affecting this airport [VIEW]
Communications frequencies: [VIEW]

Runways:

RWY identifierQFULength (ft)Width (ft)SurfaceLDA (ft)
11110°412166ASPH2841
29290°412166ASPH3412

Airport contact information

Address: Bielefeld Germany

Handlers

Flughafen Bielefeld Gmbh

Flughafen Bielefeld Gmbh

Other aviation service providers

Aviation club (not for profit)

Luftsportschule Gerhart Berwanger

Luftsportschule Gerhart Berwanger
gerhart@luftsportschule.de+495205950334
+495205950334

Motorflugschule Bielefeld

Motorflugschule Bielefeld

Satellite view of EDLI